Terminal Aerodrome Forecast
Issued by NWS Sterling, VA

Home | Current Version | Previous Version | Text Only | Print | Product List | Glossary On
Versions: 1 2 3 4 5 6 7 8 9 10 11 12 13 14 15 16 17 18 19
000
FTUS41 KLWX 270844 AAA
TAFBWI
TAF AMD
KBWI 270844Z 2709/2812 22004KT P6SM SCT070
     FM272000 18008KT P6SM BKN050
     FM272300 17007KT P6SM SCT050
     FM280000 17007KT P6SM FEW080 SCT250=

USA.gov is the U.S. government's official web portal to all federal, state and local government web resources and services.